Cornucopia, WI

1:57 PM CDT on May 25, 2015 (GMT -0500)
Shore of Lake Superior | | Change Station
CLOSE
Current Station
Personal Weather Station
Location: Port Wing, WI
Elevation: 587 ft
Nearby Weather Stations

Elev 587 ft 46.76 °N, 91.53 °W | Updated 4 seconds ago

Overcast
Overcast
46.6 °F
Feels Like 47 °F
N
2.0
Wind Variable Wind from ENE
Gusts 5.0 mph

Today
High -- | Low -- °F
--% Chance of Precip.
Yesterday
High -- | Low -- °F
Precip. -- in
5:19 AM 8:45 PM
Waxing Crescent, 51% visible
Pressure 29.70 in
Visibility 9.0 miles
Clouds Overcast 200 ft
Windchill 47 °F
Dew Point 46 °F
Humidity 98%
Rainfall 0.38 in
Snow Depth Not available.
UV 3 out of 12
Pollen .90 out of 12
Air Quality Not available.
Flu Activity Sporadic
METAR KASX 251853Z AUTO 36003KT 9SM OVC002 12/11 A2969 RMK AO2 SLP055 T01170106

More Conditions Fewer Conditions

Pressure 29.70 in
Visibility 9.0 miles
Clouds Overcast 200 ft
Windchill 47 °F
Dew Point 46 °F
Humidity 98%
Rainfall 0.38 in
Snow Depth Not available.
UV 3 out of 12
Pollen .90 out of 12
Air Quality Not available.
Flu Activity Sporadic
METAR KASX 251853Z AUTO 36003KT 9SM OVC002 12/11 A2969 RMK AO2 SLP055 T01170106

More Conditions Fewer Conditions

10-Day Weather Forecast

Almanac

Astronomy

May. 25, 2015 Rise Set
Actual Time
Civil Twilight
Nautical Twilight
Astronomical Twilight
Moon
Length of Visible Light
Length of Day
Tomorrow will be .
, % of the Moon is Illuminated

Today's Extremes

State Highs State Lows

Community

WunderPhotos

Upload Photos

1,824,080 photos uploaded!

WunderBlogs® & News

Nearby

Air Quality

  Air Quality AQ Index Pollutant
Not available.

Snow Depth

Station Depth Elevation

Earthquake Activity

City Distance Mag. Time & Date
Minimum magnitude displayed is 2.5.

Coastal Water Temperatures

Place Temperature

Stations

Nearby Weather Stations

Station Location Temp. Windchill Dew Point Humidity Wind Precip. Elev Updated Type